Triumph — WDC9555 — position and weather

sailwx.info

Track history (hours):
 
Tides and Currents Weather Stations Pressure Air Temp Water Temp Dewpoint Dewpoint Depression Visibility Wind Speed Wind Dir Waves Ship Positions

Triumph

Owner: WESTERN TOWBOAT CO, SEATTLE, WA. More information available from US FCC via Universal Licensing System and Coast Guard Vessel Documentation Center.

Last reported at 2015-Apr-18 23:33 UTC. Time now 2015-Apr-19 17:40 UTC.
Position N 47°34' W 122°21'.

Length 24 m; draft 3 m.

Type: Tow > 200 m length. MMSI: 367103880.

Date/timePositionNaut miles runAvg speedWind from/ knotsBaromVisibWave heightAir tempDewpointWater temp
2015-Apr-18 23:33N 47°34' W 122°21'3 3.0
2015-Apr-18 22:33N 47°36' W 122°24'7 6.6
2015-Apr-18 21:34N 47°42' W 122°28'8 8.0
2015-Apr-18 20:34N 47°50' W 122°28'7 7.4
2015-Apr-18 19:34N 47°57' W 122°34'7 6.4
2015-Apr-18 18:28N 48°03' W 122°39'5 5.3
2015-Apr-18 17:29N 48°08' W 122°42'3 3.5
2015-Apr-18 16:33N 48°10' W 122°46'4 3.1
2015-Apr-18 15:07N 48°14' W 122°48'5 7.3
2015-Apr-18 14:26N 48°19' W 122°47'7 7.6
2015-Apr-18 13:33N 48°25' W 122°45'7 7.1
2015-Apr-18 12:34N 48°33' W 122°45'6 5.5
2015-Apr-18 11:34N 48°38' W 122°44'5 5.0
2015-Apr-18 10:33N 48°43' W 122°45'6 5.8
2015-Apr-18 09:33N 48°47' W 122°52'7 6.6
2015-Apr-18 08:33N 48°51' W 123°00'7 7.3
2015-Apr-18 07:34N 48°55' W 123°09'7 7.2
2015-Apr-18 06:33N 48°60' W 123°17'6 6.5
2015-Apr-18 05:34N 49°06' W 123°19'6 5.8
2015-Apr-18 04:33N 49°07' W 123°10'6 5.8
2015-Apr-18 03:33N 49°09' W 123°02'0 0.1
2015-Apr-18 02:34N 49°09' W 123°02'0 0.0
2015-Apr-18 01:34N 49°09' W 123°02'0 0.0
2015-Apr-18 00:34N 49°09' W 123°02'0 0.0
2015-Apr-17 23:33N 49°09' W 123°02'0 0.0
2015-Apr-17 22:34N 49°09' W 123°02'0 0.0
2015-Apr-17 21:34N 49°09' W 123°02'0 0.0
2015-Apr-17 20:34N 49°09' W 123°02'0 0.0
2015-Apr-17 19:34N 49°09' W 123°02'0 0.0
2015-Apr-17 18:34N 49°09' W 123°02'0 0.0
2015-Apr-17 17:34N 49°09' W 123°02'0 0.0
2015-Apr-17 16:34N 49°09' W 123°02'0 0.0
2015-Apr-17 15:34N 49°09' W 123°02'0 0.0
2015-Apr-17 14:34N 49°09' W 123°02'0 0.0
2015-Apr-17 13:34N 49°09' W 123°02'0 0.0
2015-Apr-17 12:34N 49°09' W 123°02'0 0.0
2015-Apr-17 11:34N 49°09' W 123°02'4 4.2
2015-Apr-17 10:33N 49°07' W 123°07'8 7.6
2015-Apr-17 09:33N 49°06' W 123°19'6 5.9
2015-Apr-17 08:34N 49°01' W 123°14'10 9.6
2015-Apr-17 07:33N 48°55' W 123°03'9 9.2
2015-Apr-17 06:33N 48°48' W 122°53'9 8.7
2015-Apr-17 05:33N 48°42' W 122°43'7 7.1
2015-Apr-17 04:34N 48°35' W 122°45'7 6.7
2015-Apr-17 03:32N 48°28' W 122°44'8 7.6
2015-Apr-17 02:33N 48°21' W 122°45'21 9.2
2015-Apr-17 00:14N 48°00' W 122°36'7 9.9
2015-Apr-16 23:33N 47°56' W 122°29'9 8.7
2015-Apr-16 22:34N 47°47' W 122°26'9 8.6
2015-Apr-16 21:33N 47°39' W 122°27'7 6.7
2015-Apr-16 20:33N 47°33' W 122°21'0 0.1
2015-Apr-16 19:33N 47°33' W 122°21'1 0.9
2015-Apr-16 18:33N 47°34' W 122°21'0 0.0
2015-Apr-16 17:33N 47°34' W 122°21'0 0.0
2015-Apr-16 16:16N 47°34' W 122°21'0 0.0
2015-Apr-16 15:33N 47°34' W 122°21'0 0.0
2015-Apr-16 14:33N 47°34' W 122°21'0 0.0
2015-Apr-16 13:29N 47°34' W 122°21'0 0.0
2015-Apr-16 12:32N 47°34' W 122°21'0 0.0
2015-Apr-16 11:33N 47°34' W 122°21'0 0.0
2015-Apr-16 10:25N 47°34' W 122°21'0 0.0
2015-Apr-16 09:33N 47°34' W 122°21'2 2.5
2015-Apr-16 08:33N 47°36' W 122°23'10 9.8
2015-Apr-16 07:33N 47°26' W 122°23'10 9.6
2015-Apr-16 06:32N 47°17' W 122°26'1 1.2
2015-Apr-16 05:33N 47°18' W 122°27'7 7.0
2015-Apr-16 04:34N 47°24' W 122°22'8 7.5
2015-Apr-16 03:33N 47°31' W 122°26'5 5.5
2015-Apr-16 02:34N 47°35' W 122°22'0 0.2
2015-Apr-16 01:34N 47°35' W 122°21'0 0.1
2015-Apr-16 00:33N 47°35' W 122°21'1 1.3
2015-Apr-15 23:33N 47°34' W 122°21'0 0.0
2015-Apr-13 20:33N 47°34' W 122°21'0 0.0
2015-Apr-12 06:30N 47°34' W 122°21'1 1.3
2015-Apr-12 05:33N 47°35' W 122°21'6 6.0
2015-Apr-12 04:34N 47°39' W 122°28'9 9.0
2015-Apr-12 03:34N 47°48' W 122°28'10 9.7
2015-Apr-12 02:33N 47°57' W 122°34'1310.3
2015-Apr-12 01:15N 48°09' W 122°43'710.3
2015-Apr-12 00:32N 48°11' W 122°54'10 9.6
2015-Apr-11 23:32N 48°12' W 123°08'8 8.5
2015-Apr-11 22:33N 48°09' W 123°20'3 3.4
2015-Apr-11 21:34N 48°08' W 123°25'0 0.0
2015-Apr-11 20:34N 48°08' W 123°25'0 0.0
2015-Apr-11 19:34N 48°08' W 123°25'0 0.0
2015-Apr-11 18:34N 48°08' W 123°25'0 0.1
2015-Apr-11 17:34N 48°08' W 123°25'2 1.5
2015-Apr-11 16:33N 48°08' W 123°27'0 0.0
2015-Apr-11 15:33N 48°08' W 123°27'0 0.0
2015-Apr-11 14:33N 48°08' W 123°27'0 0.0
2015-Apr-11 13:34N 48°08' W 123°27'0 0.0
2015-Apr-11 12:33N 48°08' W 123°27'0 0.0
2015-Apr-11 11:33N 48°08' W 123°27'0 0.0
2015-Apr-11 10:34N 48°08' W 123°27'0 0.0
2015-Apr-11 09:33N 48°08' W 123°27'0 0.2
2015-Apr-11 08:33N 48°08' W 123°27'3 2.7
2015-Apr-11 07:34N 48°08' W 123°23'9 8.3
2015-Apr-11 06:31N 48°14' W 123°13'17 8.3
2015-Apr-11 04:31N 48°23' W 122°52'7 6.8
2015-Apr-11 03:33N 48°28' W 122°45'6 6.1
2015-Apr-11 02:33N 48°31' W 122°38'2 0.8
2015-Apr-11 00:04N 48°31' W 122°35'0 0.1
2015-Apr-10 22:15N 48°31' W 122°35'0 0.1
2015-Apr-10 21:29N 48°31' W 122°35'0 0.0
2015-Apr-10 18:18N 48°31' W 122°35'0 0.0
2015-Apr-10 16:25N 48°31' W 122°35'0 0.1
2015-Apr-10 15:04N 48°31' W 122°35'1 1.7
2015-Apr-10 14:33N 48°32' W 122°36'5 5.4
2015-Apr-10 13:34N 48°29' W 122°44'23 7.0
2015-Apr-10 10:16N 48°06' W 122°39'8 9.3
2015-Apr-10 09:26N 47°59' W 122°35'7 8.6
2015-Apr-10 08:33N 47°53' W 122°28'8 8.1
2015-Apr-10 07:33N 47°45' W 122°26'8 7.7
2015-Apr-10 06:33N 47°38' W 122°26'4 3.8
2015-Apr-10 05:33N 47°35' W 122°21'1 1.2
2015-Apr-10 04:33N 47°34' W 122°21'0 0.0
2015-Apr-10 03:33N 47°34' W 122°21'0 0.0
2015-Apr-10 02:14N 47°34' W 122°21'0 0.6
2015-Apr-10 01:34N 47°34' W 122°21'3 3.2
2015-Apr-10 00:33N 47°37' W 122°23'3 3.4
2015-Apr-09 23:33N 47°34' W 122°21'0 0.2
2015-Apr-09 22:33N 47°34' W 122°21'1 1.1
2015-Apr-09 21:33N 47°35' W 122°21'1 0.9
2015-Apr-09 20:33N 47°36' W 122°22'0 0.1
2015-Apr-09 19:33N 47°36' W 122°22'0 0.1
2015-Apr-09 18:31N 47°36' W 122°22'0 0.2
2015-Apr-09 17:33N 47°36' W 122°22'0 0.1
2015-Apr-09 16:33N 47°36' W 122°22'0 0.1
2015-Apr-09 15:31N 47°36' W 122°22'0 0.0
2015-Apr-09 14:33N 47°36' W 122°22'0 0.0
2015-Apr-09 13:33N 47°36' W 122°22'1 0.9
2015-Apr-09 12:32N 47°35' W 122°21'  
Track history (hours):
 
Tides and Currents Weather Stations Pressure Air Temp Water Temp Dewpoint Dewpoint Depression Visibility Wind Speed Wind Dir Waves Ship Positions

Triumph

Owner: WESTERN TOWBOAT CO, SEATTLE, WA. More information available from US FCC via Universal Licensing System and Coast Guard Vessel Documentation Center.

Last reported at 2015-Apr-18 23:33 UTC. Time now 2015-Apr-19 17:40 UTC.
Position N 47°34' W 122°21'.

Length 24 m; draft 3 m.

Type: Tow > 200 m length. MMSI: 367103880.

Date/timePositionNaut miles runAvg speedWind from/ knotsBaromVisibWave heightAir tempDewpointWater temp
2015-Apr-18 23:33N 47°34' W 122°21'3 3.0
2015-Apr-18 22:33N 47°36' W 122°24'7 6.6
2015-Apr-18 21:34N 47°42' W 122°28'8 8.0
2015-Apr-18 20:34N 47°50' W 122°28'7 7.4
2015-Apr-18 19:34N 47°57' W 122°34'7 6.4
2015-Apr-18 18:28N 48°03' W 122°39'5 5.3
2015-Apr-18 17:29N 48°08' W 122°42'3 3.5
2015-Apr-18 16:33N 48°10' W 122°46'4 3.1
2015-Apr-18 15:07N 48°14' W 122°48'5 7.3
2015-Apr-18 14:26N 48°19' W 122°47'7 7.6
2015-Apr-18 13:33N 48°25' W 122°45'7 7.1
2015-Apr-18 12:34N 48°33' W 122°45'6 5.5
2015-Apr-18 11:34N 48°38' W 122°44'5 5.0
2015-Apr-18 10:33N 48°43' W 122°45'6 5.8
2015-Apr-18 09:33N 48°47' W 122°52'7 6.6
2015-Apr-18 08:33N 48°51' W 123°00'7 7.3
2015-Apr-18 07:34N 48°55' W 123°09'7 7.2
2015-Apr-18 06:33N 48°60' W 123°17'6 6.5
2015-Apr-18 05:34N 49°06' W 123°19'6 5.8
2015-Apr-18 04:33N 49°07' W 123°10'6 5.8
2015-Apr-18 03:33N 49°09' W 123°02'0 0.1
2015-Apr-18 02:34N 49°09' W 123°02'0 0.0
2015-Apr-18 01:34N 49°09' W 123°02'0 0.0
2015-Apr-18 00:34N 49°09' W 123°02'0 0.0
2015-Apr-17 23:33N 49°09' W 123°02'0 0.0
2015-Apr-17 22:34N 49°09' W 123°02'0 0.0
2015-Apr-17 21:34N 49°09' W 123°02'0 0.0
2015-Apr-17 20:34N 49°09' W 123°02'0 0.0
2015-Apr-17 19:34N 49°09' W 123°02'0 0.0
2015-Apr-17 18:34N 49°09' W 123°02'0 0.0
2015-Apr-17 17:34N 49°09' W 123°02'0 0.0
2015-Apr-17 16:34N 49°09' W 123°02'0 0.0
2015-Apr-17 15:34N 49°09' W 123°02'0 0.0
2015-Apr-17 14:34N 49°09' W 123°02'0 0.0
2015-Apr-17 13:34N 49°09' W 123°02'0 0.0
2015-Apr-17 12:34N 49°09' W 123°02'0 0.0
2015-Apr-17 11:34N 49°09' W 123°02'4 4.2
2015-Apr-17 10:33N 49°07' W 123°07'8 7.6
2015-Apr-17 09:33N 49°06' W 123°19'6 5.9
2015-Apr-17 08:34N 49°01' W 123°14'10 9.6
2015-Apr-17 07:33N 48°55' W 123°03'9 9.2
2015-Apr-17 06:33N 48°48' W 122°53'9 8.7
2015-Apr-17 05:33N 48°42' W 122°43'7 7.1
2015-Apr-17 04:34N 48°35' W 122°45'7 6.7
2015-Apr-17 03:32N 48°28' W 122°44'8 7.6
2015-Apr-17 02:33N 48°21' W 122°45'21 9.2
2015-Apr-17 00:14N 48°00' W 122°36'7 9.9
2015-Apr-16 23:33N 47°56' W 122°29'9 8.7
2015-Apr-16 22:34N 47°47' W 122°26'9 8.6
2015-Apr-16 21:33N 47°39' W 122°27'7 6.7
2015-Apr-16 20:33N 47°33' W 122°21'0 0.1
2015-Apr-16 19:33N 47°33' W 122°21'1 0.9
2015-Apr-16 18:33N 47°34' W 122°21'0 0.0
2015-Apr-16 17:33N 47°34' W 122°21'0 0.0
2015-Apr-16 16:16N 47°34' W 122°21'0 0.0
2015-Apr-16 15:33N 47°34' W 122°21'0 0.0
2015-Apr-16 14:33N 47°34' W 122°21'0 0.0
2015-Apr-16 13:29N 47°34' W 122°21'0 0.0
2015-Apr-16 12:32N 47°34' W 122°21'0 0.0
2015-Apr-16 11:33N 47°34' W 122°21'0 0.0
2015-Apr-16 10:25N 47°34' W 122°21'0 0.0
2015-Apr-16 09:33N 47°34' W 122°21'2 2.5
2015-Apr-16 08:33N 47°36' W 122°23'10 9.8
2015-Apr-16 07:33N 47°26' W 122°23'10 9.6
2015-Apr-16 06:32N 47°17' W 122°26'1 1.2
2015-Apr-16 05:33N 47°18' W 122°27'7 7.0
2015-Apr-16 04:34N 47°24' W 122°22'8 7.5
2015-Apr-16 03:33N 47°31' W 122°26'5 5.5
2015-Apr-16 02:34N 47°35' W 122°22'0 0.2
2015-Apr-16 01:34N 47°35' W 122°21'0 0.1
2015-Apr-16 00:33N 47°35' W 122°21'1 1.3
2015-Apr-15 23:33N 47°34' W 122°21'0 0.0
2015-Apr-13 20:33N 47°34' W 122°21'0 0.0
2015-Apr-12 06:30N 47°34' W 122°21'1 1.3
2015-Apr-12 05:33N 47°35' W 122°21'6 6.0
2015-Apr-12 04:34N 47°39' W 122°28'9 9.0
2015-Apr-12 03:34N 47°48' W 122°28'10 9.7
2015-Apr-12 02:33N 47°57' W 122°34'1310.3
2015-Apr-12 01:15N 48°09' W 122°43'710.3
2015-Apr-12 00:32N 48°11' W 122°54'10 9.6
2015-Apr-11 23:32N 48°12' W 123°08'8 8.5
2015-Apr-11 22:33N 48°09' W 123°20'3 3.4
2015-Apr-11 21:34N 48°08' W 123°25'0 0.0
2015-Apr-11 20:34N 48°08' W 123°25'0 0.0
2015-Apr-11 19:34N 48°08' W 123°25'0 0.0
2015-Apr-11 18:34N 48°08' W 123°25'0 0.1
2015-Apr-11 17:34N 48°08' W 123°25'2 1.5
2015-Apr-11 16:33N 48°08' W 123°27'0 0.0
2015-Apr-11 15:33N 48°08' W 123°27'0 0.0
2015-Apr-11 14:33N 48°08' W 123°27'0 0.0
2015-Apr-11 13:34N 48°08' W 123°27'0 0.0
2015-Apr-11 12:33N 48°08' W 123°27'0 0.0
2015-Apr-11 11:33N 48°08' W 123°27'0 0.0
2015-Apr-11 10:34N 48°08' W 123°27'0 0.0
2015-Apr-11 09:33N 48°08' W 123°27'0 0.2
2015-Apr-11 08:33N 48°08' W 123°27'3 2.7
2015-Apr-11 07:34N 48°08' W 123°23'9 8.3
2015-Apr-11 06:31N 48°14' W 123°13'17 8.3
2015-Apr-11 04:31N 48°23' W 122°52'7 6.8
2015-Apr-11 03:33N 48°28' W 122°45'6 6.1
2015-Apr-11 02:33N 48°31' W 122°38'2 0.8
2015-Apr-11 00:04N 48°31' W 122°35'0 0.1
2015-Apr-10 22:15N 48°31' W 122°35'0 0.1
2015-Apr-10 21:29N 48°31' W 122°35'0 0.0
2015-Apr-10 18:18N 48°31' W 122°35'0 0.0
2015-Apr-10 16:25N 48°31' W 122°35'0 0.1
2015-Apr-10 15:04N 48°31' W 122°35'1 1.7
2015-Apr-10 14:33N 48°32' W 122°36'5 5.4
2015-Apr-10 13:34N 48°29' W 122°44'23 7.0
2015-Apr-10 10:16N 48°06' W 122°39'8 9.3
2015-Apr-10 09:26N 47°59' W 122°35'7 8.6
2015-Apr-10 08:33N 47°53' W 122°28'8 8.1
2015-Apr-10 07:33N 47°45' W 122°26'8 7.7
2015-Apr-10 06:33N 47°38' W 122°26'4 3.8
2015-Apr-10 05:33N 47°35' W 122°21'1 1.2
2015-Apr-10 04:33N 47°34' W 122°21'0 0.0
2015-Apr-10 03:33N 47°34' W 122°21'0 0.0
2015-Apr-10 02:14N 47°34' W 122°21'0 0.6
2015-Apr-10 01:34N 47°34' W 122°21'3 3.2
2015-Apr-10 00:33N 47°37' W 122°23'3 3.4
2015-Apr-09 23:33N 47°34' W 122°21'0 0.2
2015-Apr-09 22:33N 47°34' W 122°21'1 1.1
2015-Apr-09 21:33N 47°35' W 122°21'1 0.9
2015-Apr-09 20:33N 47°36' W 122°22'0 0.1
2015-Apr-09 19:33N 47°36' W 122°22'0 0.1
2015-Apr-09 18:31N 47°36' W 122°22'0 0.2
2015-Apr-09 17:33N 47°36' W 122°22'0 0.1
2015-Apr-09 16:33N 47°36' W 122°22'0 0.1
2015-Apr-09 15:31N 47°36' W 122°22'0 0.0
2015-Apr-09 14:33N 47°36' W 122°22'0 0.0
2015-Apr-09 13:33N 47°36' W 122°22'1 0.9
2015-Apr-09 12:32N 47°35' W 122°21'  

Dump ship's entire track history